Terminal Aerodrome Forecast
Issued by NWS Pueblo, CO

Home | Current Version | Previous Version | Text Only | Print | Product List | Glossary On
Versions: 1 2 3 4 5 6 7 8 9 10 11 12 13 14 15 16 17 18 19 20 21 22 23 24 25 26 27 28 29 30 31 32 33 34 35
000
FTUS45 KPUB 252129 AAC
TAFPUB
TAF AMD
KPUB 252129Z 2521/2618 15007KT P6SM SCT040 BKN100
      TEMPO 2521/2601 5SM -SHRA BKN040
     FM260100 35018KT 2SM -SHRA OVC012
     FM260300 01026G38KT 3SM -SHRA OVC020
     FM260800 01015KT P6SM VCSH BKN030 OVC060
     FM261100 35006KT P6SM SCT150=

USA.gov is the U.S. government's official web portal to all federal, state and local government web resources and services.